Terminal Aerodrome Forecast
Issued by NWS

Home | Current Version | Previous Version | Graphics & Text | Print | Product List | Glossary On
Versions: 1 2 3 4 5 6 7 8 9 10 11 12 13 14 15 16 17 18 19 20 21 22 23 24 25 26 27 28 29 30
727
FTUS43 KABR 132226 AAA
TAFPIR
TAF AMD
KPIR 132226Z 1322/1418 15015KT P6SM FEW030 OVC045
     FM140000 12009KT P6SM OVC025
     FM140300 12007KT P6SM OVC020
     FM141000 25004KT P6SM BKN035
     FM141700 29012KT P6SM BKN060=

USA.gov is the U.S. government's official web portal to all federal, state and local government web resources and services.